createdAt,value
2022-12-06T00:02:15.134Z,5.23
2022-12-06T00:04:43.725Z,5.18
2022-12-06T00:07:13.181Z,5.11
2022-12-06T00:09:42.068Z,5.14
2022-12-06T00:12:10.714Z,5.10
2022-12-06T00:14:39.329Z,5.10
2022-12-06T00:17:07.818Z,5.08
2022-12-06T00:19:37.657Z,5.04
2022-12-06T00:22:06.284Z,5.11
2022-12-06T00:24:36.262Z,5.12
2022-12-06T00:27:05.047Z,5.09
2022-12-06T00:29:33.854Z,5.07
2022-12-06T00:32:02.440Z,5.00
2022-12-06T00:34:30.994Z,4.96
2022-12-06T00:37:00.816Z,4.89
2022-12-06T00:39:29.740Z,4.90
2022-12-06T00:41:58.231Z,4.88
2022-12-06T00:44:26.710Z,4.81
2022-12-06T00:46:55.241Z,4.81
2022-12-06T00:49:23.931Z,4.79
2022-12-06T00:51:52.376Z,4.81
2022-12-06T00:54:22.347Z,4.76
2022-12-06T00:56:50.802Z,4.68
2022-12-06T00:59:19.521Z,4.72
2022-12-06T01:01:48.193Z,4.80
2022-12-06T01:04:16.802Z,4.78
2022-12-06T01:06:45.665Z,4.80
2022-12-06T01:09:14.577Z,4.81
2022-12-06T01:11:44.400Z,4.79
2022-12-06T01:14:12.971Z,4.77
2022-12-06T01:16:42.505Z,4.74
2022-12-06T01:19:13.420Z,4.82
2022-12-06T01:21:42.227Z,4.83
2022-12-06T01:24:10.740Z,4.87
2022-12-06T01:26:39.281Z,4.87
2022-12-06T01:29:09.200Z,4.86
2022-12-06T01:31:39.232Z,4.92
2022-12-06T01:34:09.466Z,4.95
2022-12-06T01:36:37.974Z,4.95
2022-12-06T01:39:10.588Z,4.94
2022-12-06T01:41:40.645Z,4.89
2022-12-06T01:44:46.874Z,4.83
2022-12-06T01:47:22.620Z,4.83
2022-12-06T01:49:57.876Z,4.84
2022-12-06T01:52:32.641Z,4.84
2022-12-06T01:55:04.516Z,4.80
2022-12-06T01:57:33.198Z,4.79
2022-12-06T02:00:04.280Z,4.82
2022-12-06T02:02:39.508Z,4.84
2022-12-06T02:05:09.891Z,4.77
2022-12-06T02:07:39.598Z,4.86
2022-12-06T02:10:10.072Z,4.91
2022-12-06T02:12:39.109Z,4.96
2022-12-06T02:15:11.698Z,4.90
2022-12-06T02:17:51.151Z,4.78
2022-12-06T02:20:34.071Z,4.60
2022-12-06T02:23:37.939Z,4.80
2022-12-06T02:26:25.973Z,4.83
2022-12-06T02:29:55.894Z,4.83
2022-12-06T02:32:34.806Z,4.78
2022-12-06T02:35:15.809Z,4.82
2022-12-06T02:37:53.183Z,4.84
2022-12-06T02:40:30.179Z,4.87
2022-12-06T02:43:06.566Z,4.80
2022-12-06T02:45:41.962Z,4.80
2022-12-06T02:48:14.629Z,4.81
2022-12-06T02:50:48.702Z,4.76
2022-12-06T02:53:21.946Z,4.82
2022-12-06T02:55:52.972Z,4.87
2022-12-06T02:58:21.425Z,4.84
2022-12-06T03:00:57.336Z,4.83
2022-12-06T03:03:53.094Z,4.85
2022-12-06T03:06:51.671Z,4.78
2022-12-06T03:09:37.681Z,4.74
2022-12-06T03:12:17.274Z,4.72
2022-12-06T03:14:57.254Z,4.68
2022-12-06T03:17:37.095Z,4.62
2022-12-06T03:20:15.223Z,4.55
2022-12-06T03:22:51.382Z,4.49
2022-12-06T03:25:20.499Z,4.45
2022-12-06T03:27:52.505Z,4.48
2022-12-06T03:30:21.452Z,4.41
2022-12-06T03:32:51.794Z,4.43
2022-12-06T03:35:28.686Z,4.52
2022-12-06T03:38:05.747Z,4.39
2022-12-06T03:40:39.887Z,4.38
2022-12-06T03:43:09.128Z,4.46
2022-12-06T03:45:44.347Z,4.44
2022-12-06T03:48:18.165Z,4.42
2022-12-06T03:50:58.524Z,4.51
2022-12-06T03:53:27.887Z,4.45
2022-12-06T03:55:56.749Z,4.53
2022-12-06T03:58:25.293Z,4.55
2022-12-06T04:00:54.058Z,4.48
2022-12-06T04:03:22.660Z,4.51
2022-12-06T04:05:52.713Z,4.59
2022-12-06T04:08:21.904Z,4.51
2022-12-06T04:10:50.629Z,4.50
2022-12-06T04:13:19.887Z,4.52
2022-12-06T04:15:49.300Z,4.55
2022-12-06T04:18:18.840Z,4.66
2022-12-06T04:21:07.795Z,4.62
2022-12-06T04:23:40.837Z,4.63
2022-12-06T04:26:12.278Z,4.58
2022-12-06T04:28:58.692Z,4.63
2022-12-06T04:31:45.191Z,4.59
2022-12-06T04:34:31.063Z,4.57
2022-12-06T04:37:17.638Z,4.53
2022-12-06T04:39:47.960Z,4.59
2022-12-06T04:42:34.182Z,4.47
2022-12-06T04:45:06.848Z,4.63
2022-12-06T04:47:35.925Z,4.53
2022-12-06T04:50:05.131Z,4.53
2022-12-06T04:52:44.335Z,4.60
2022-12-06T04:55:17.301Z,4.59
2022-12-06T04:57:53.751Z,4.52
2022-12-06T05:00:30.171Z,4.51
2022-12-06T05:02:58.772Z,4.47
2022-12-06T05:05:27.249Z,4.59
2022-12-06T05:07:57.046Z,4.66
2022-12-06T05:10:27.199Z,4.60
2022-12-06T05:12:56.043Z,4.67
2022-12-06T05:15:29.059Z,4.70
2022-12-06T05:18:00.422Z,4.70
2022-12-06T05:20:34.371Z,4.70
2022-12-06T05:23:05.840Z,4.75
2022-12-06T05:25:36.009Z,4.71
2022-12-06T05:28:04.937Z,4.61
2022-12-06T05:30:34.030Z,4.77
2022-12-06T05:33:03.631Z,4.67
2022-12-06T05:35:32.238Z,4.76
2022-12-06T05:38:00.802Z,4.68
2022-12-06T05:40:29.701Z,4.72
2022-12-06T05:42:59.712Z,4.79
2022-12-06T05:45:28.361Z,4.69
2022-12-06T05:47:56.952Z,4.68
2022-12-06T05:50:28.113Z,4.67
2022-12-06T05:52:57.591Z,4.77
2022-12-06T05:55:27.386Z,4.64
2022-12-06T05:57:56.394Z,4.55
2022-12-06T06:00:26.558Z,4.62
2022-12-06T06:02:57.940Z,4.64
2022-12-06T06:05:27.027Z,4.61
2022-12-06T06:07:55.870Z,4.62
2022-12-06T06:10:25.078Z,4.69
2022-12-06T06:12:54.526Z,4.51
2022-12-06T06:15:23.198Z,4.63
2022-12-06T06:17:53.138Z,4.67
2022-12-06T06:20:21.825Z,4.86
2022-12-06T06:22:50.804Z,4.89
2022-12-06T06:25:19.814Z,4.87
2022-12-06T06:27:48.449Z,4.85
2022-12-06T06:30:17.627Z,4.81
2022-12-06T06:32:46.405Z,4.80
2022-12-06T06:35:16.583Z,4.90
2022-12-06T06:37:46.129Z,4.96
2022-12-06T06:40:14.857Z,4.87
2022-12-06T06:42:43.520Z,4.92
2022-12-06T06:45:13.123Z,4.92
2022-12-06T06:47:41.780Z,4.90
2022-12-06T06:50:11.212Z,4.93
2022-12-06T06:52:41.307Z,5.00
2022-12-06T06:55:10.553Z,5.02
2022-12-06T06:57:41.536Z,4.95
2022-12-06T07:00:12.463Z,4.95
2022-12-06T07:02:44.757Z,5.01
2022-12-06T07:05:13.416Z,5.03
2022-12-06T07:07:44.448Z,4.96
2022-12-06T07:10:13.998Z,5.02
2022-12-06T07:12:43.909Z,4.95
2022-12-06T07:15:12.991Z,5.03
2022-12-06T07:17:41.666Z,4.92
2022-12-06T07:20:11.675Z,4.95
2022-12-06T07:22:42.421Z,5.06
2022-12-06T07:25:11.282Z,5.13
2022-12-06T07:27:40.160Z,5.10
2022-12-06T07:30:14.392Z,5.20
2022-12-06T07:32:45.601Z,5.23
2022-12-06T07:35:14.229Z,5.23
2022-12-06T07:37:45.563Z,5.35
2022-12-06T07:40:23.569Z,5.38
2022-12-06T07:43:21.785Z,5.36
2022-12-06T07:45:50.469Z,5.40
2022-12-06T07:48:20.762Z,5.47
2022-12-06T07:50:49.366Z,5.62
2022-12-06T07:53:19.920Z,5.55
2022-12-06T07:55:48.435Z,5.65
2022-12-06T07:58:20.029Z,5.60
2022-12-06T08:00:49.885Z,5.62
2022-12-06T08:03:19.238Z,5.57
2022-12-06T08:05:55.749Z,5.74
2022-12-06T08:08:28.708Z,5.75
2022-12-06T08:11:00.484Z,5.74
2022-12-06T08:13:30.892Z,5.76
2022-12-06T08:15:59.863Z,5.89
2022-12-06T08:18:29.608Z,5.95
2022-12-06T08:20:59.635Z,5.94
2022-12-06T08:23:34.120Z,5.94
2022-12-06T08:26:08.166Z,6.05
2022-12-06T08:28:39.139Z,6.06
2022-12-06T08:31:10.830Z,6.05
2022-12-06T08:33:40.658Z,6.22
2022-12-06T08:36:12.807Z,6.27
2022-12-06T08:38:45.507Z,6.34
2022-12-06T08:41:28.815Z,6.28
2022-12-06T08:44:03.575Z,6.36
2022-12-06T08:46:35.725Z,6.33
2022-12-06T08:49:05.652Z,6.41
2022-12-06T08:51:37.080Z,6.45
2022-12-06T08:54:11.119Z,6.39
2022-12-06T08:56:48.172Z,6.44
2022-12-06T08:59:18.746Z,6.25
2022-12-06T09:01:48.849Z,6.20
2022-12-06T09:04:17.688Z,6.01
2022-12-06T09:06:46.896Z,6.23
2022-12-06T09:09:19.308Z,6.30
2022-12-06T09:11:49.928Z,6.44
2022-12-06T09:14:22.371Z,6.49
2022-12-06T09:16:53.245Z,6.48
2022-12-06T09:19:22.419Z,6.55
2022-12-06T09:21:51.071Z,6.41
2022-12-06T09:24:21.214Z,6.51
2022-12-06T09:26:50.937Z,6.41
2022-12-06T09:29:20.190Z,6.53
2022-12-06T09:31:50.690Z,6.58
2022-12-06T09:34:21.223Z,6.50
2022-12-06T09:36:55.119Z,6.34
2022-12-06T09:39:32.934Z,6.41
2022-12-06T09:42:39.660Z,6.46
2022-12-06T09:45:34.118Z,6.53
2022-12-06T09:48:34.643Z,6.37
2022-12-06T09:51:22.259Z,6.28
2022-12-06T09:54:13.436Z,6.33
2022-12-06T09:56:55.317Z,6.53
2022-12-06T09:59:36.691Z,6.40
2022-12-06T10:02:37.475Z,6.45
2022-12-06T10:05:37.834Z,6.50
2022-12-06T10:08:26.335Z,6.46
2022-12-06T10:11:08.734Z,6.39
2022-12-06T10:14:02.375Z,6.31
2022-12-06T10:16:48.119Z,6.37
2022-12-06T10:19:33.719Z,6.45
2022-12-06T10:22:19.674Z,6.39
2022-12-06T10:25:03.791Z,6.42
2022-12-06T10:27:39.678Z,6.36
2022-12-06T10:30:15.139Z,6.52
2022-12-06T10:32:56.693Z,6.51
2022-12-06T10:35:45.738Z,6.55
2022-12-06T10:38:28.425Z,6.56
2022-12-06T10:41:13.637Z,6.48
2022-12-06T10:43:55.627Z,6.26
2022-12-06T10:46:53.690Z,6.44
2022-12-06T10:49:34.774Z,6.56
2022-12-06T10:52:21.652Z,6.76
2022-12-06T10:55:03.582Z,6.84
2022-12-06T10:57:42.420Z,6.71
2022-12-06T11:00:18.946Z,6.89
2022-12-06T11:03:00.803Z,6.99
2022-12-06T11:05:38.498Z,7.17
2022-12-06T11:08:15.994Z,7.13
2022-12-06T11:10:47.735Z,7.48
2022-12-06T11:13:31.971Z,7.51
2022-12-06T11:16:11.510Z,7.43
2022-12-06T11:18:41.981Z,7.52
2022-12-06T11:21:25.542Z,7.77
2022-12-06T11:24:04.741Z,7.77
2022-12-06T11:26:45.032Z,7.78
2022-12-06T11:29:17.087Z,8.05
2022-12-06T11:31:51.883Z,8.01
2022-12-06T11:34:32.563Z,8.09
2022-12-06T11:37:04.886Z,8.08
2022-12-06T11:39:35.424Z,8.21
2022-12-06T11:42:09.090Z,8.43
2022-12-06T11:44:49.428Z,8.51
2022-12-06T11:47:30.351Z,8.29
2022-12-06T11:50:07.436Z,8.35
2022-12-06T11:52:47.197Z,8.57
2022-12-06T11:55:19.862Z,7.96
2022-12-06T11:57:54.759Z,8.20
2022-12-06T12:00:25.969Z,8.05
2022-12-06T12:02:57.825Z,8.18
2022-12-06T12:05:34.240Z,8.04
2022-12-06T12:08:08.087Z,7.63
2022-12-06T12:10:42.299Z,7.84
2022-12-06T12:13:44.931Z,7.81
2022-12-06T12:16:20.183Z,7.53
2022-12-06T12:18:58.388Z,7.68
2022-12-06T12:21:40.248Z,7.79
2022-12-06T12:25:18.319Z,7.68
2022-12-06T12:27:44.884Z,7.26
2022-12-06T12:30:35.259Z,7.36
2022-12-06T12:33:21.691Z,7.47
2022-12-06T12:36:09.930Z,7.75
2022-12-06T12:38:45.617Z,7.82
2022-12-06T12:41:30.254Z,7.75
2022-12-06T12:44:35.902Z,7.67
2022-12-06T12:46:58.167Z,7.70
2022-12-06T12:49:39.035Z,7.65
2022-12-06T12:52:33.312Z,7.47
2022-12-06T12:55:18.736Z,7.27
2022-12-06T12:57:51.428Z,7.37
2022-12-06T13:00:25.177Z,7.36
2022-12-06T13:02:59.789Z,7.27
2022-12-06T13:05:34.638Z,7.39
2022-12-06T13:08:14.269Z,7.42
2022-12-06T13:10:55.547Z,7.48
2022-12-06T13:13:32.478Z,7.42
2022-12-06T13:16:10.167Z,7.52
2022-12-06T13:18:45.787Z,7.41
2022-12-06T13:21:22.921Z,7.29
2022-12-06T13:23:58.491Z,7.45
2022-12-06T13:26:34.973Z,7.42
2022-12-06T13:29:21.868Z,7.35
2022-12-06T13:31:54.860Z,7.17
2022-12-06T13:34:37.404Z,7.19
2022-12-06T13:37:36.196Z,7.03
2022-12-06T13:40:08.781Z,6.79
2022-12-06T13:42:48.130Z,6.83
2022-12-06T13:45:43.951Z,6.81
2022-12-06T13:48:38.520Z,6.85
2022-12-06T13:51:13.634Z,6.86
2022-12-06T13:54:36.504Z,6.93
2022-12-06T13:57:31.755Z,6.98
2022-12-06T14:00:02.856Z,6.98
2022-12-06T14:02:54.959Z,6.90
2022-12-06T14:06:06.039Z,6.85
2022-12-06T14:08:41.912Z,6.78
2022-12-06T14:11:22.595Z,6.89
2022-12-06T14:14:03.715Z,6.79
2022-12-06T14:16:40.289Z,6.81
2022-12-06T14:19:19.459Z,6.75
2022-12-06T14:21:56.972Z,6.47
2022-12-06T14:24:38.058Z,6.57
2022-12-06T14:27:13.595Z,6.55
2022-12-06T14:29:44.624Z,6.54
2022-12-06T14:32:18.893Z,6.43
2022-12-06T14:34:48.561Z,6.53
2022-12-06T14:37:24.507Z,6.53
2022-12-06T14:39:56.292Z,6.46
2022-12-06T14:42:42.415Z,6.54
2022-12-06T14:45:17.330Z,6.48
2022-12-06T14:47:47.721Z,6.48
2022-12-06T14:50:36.715Z,6.46
2022-12-06T14:53:12.659Z,6.49
2022-12-06T14:55:56.273Z,6.45
2022-12-06T14:58:30.001Z,6.39
2022-12-06T15:01:05.468Z,6.26
2022-12-06T15:03:42.911Z,6.30
2022-12-06T15:06:21.821Z,6.31
2022-12-06T15:08:55.458Z,6.28
2022-12-06T15:11:53.095Z,6.25
2022-12-06T15:14:24.985Z,6.29
2022-12-06T15:17:02.926Z,6.21
2022-12-06T15:19:37.819Z,6.26
2022-12-06T15:22:21.469Z,6.14
2022-12-06T15:24:56.444Z,6.14
2022-12-06T15:27:27.986Z,6.16
2022-12-06T15:29:57.013Z,6.08
2022-12-06T15:32:27.058Z,6.00
2022-12-06T15:34:57.110Z,6.12
2022-12-06T15:37:45.071Z,6.16
2022-12-06T15:40:16.706Z,6.10
2022-12-06T15:42:45.355Z,6.08
2022-12-06T15:45:17.235Z,6.05
2022-12-06T15:47:46.266Z,5.98
2022-12-06T15:50:17.922Z,5.97
2022-12-06T15:52:46.864Z,6.02
2022-12-06T15:55:19.969Z,6.04
2022-12-06T15:57:48.524Z,5.98
2022-12-06T16:00:17.676Z,5.83
2022-12-06T16:02:46.503Z,5.85
2022-12-06T16:05:18.737Z,5.87
2022-12-06T16:07:47.716Z,5.74
2022-12-06T16:10:22.187Z,5.79
2022-12-06T16:13:09.311Z,5.80
2022-12-06T16:15:39.017Z,5.81
2022-12-06T16:18:08.156Z,5.87
2022-12-06T16:20:40.992Z,5.89
2022-12-06T16:23:56.556Z,5.83
2022-12-06T16:26:23.540Z,5.85
2022-12-06T16:28:52.152Z,5.87
2022-12-06T16:31:20.894Z,5.92
2022-12-06T16:33:49.732Z,5.82
2022-12-06T16:36:22.895Z,5.82
2022-12-06T16:38:56.131Z,5.69
2022-12-06T16:41:28.408Z,5.44
2022-12-06T16:43:57.893Z,5.32
2022-12-06T16:46:31.530Z,5.15
2022-12-06T16:49:22.601Z,5.10
2022-12-06T16:51:54.289Z,5.08
2022-12-06T16:54:24.918Z,5.22
2022-12-06T16:56:53.680Z,5.06
2022-12-06T16:59:22.634Z,4.89
2022-12-06T17:01:54.024Z,4.80
2022-12-06T17:04:22.845Z,4.99
2022-12-06T17:06:52.906Z,5.07
2022-12-06T17:09:21.601Z,5.06
2022-12-06T17:12:06.833Z,5.13
2022-12-06T17:14:37.949Z,5.23
2022-12-06T17:17:07.084Z,5.16
2022-12-06T17:19:36.154Z,5.08
2022-12-06T17:22:07.381Z,5.02
2022-12-06T17:24:36.087Z,4.94
2022-12-06T17:27:05.254Z,5.06
2022-12-06T17:29:34.263Z,5.02
2022-12-06T17:32:03.477Z,5.03
2022-12-06T17:34:33.000Z,5.11
2022-12-06T17:37:07.689Z,5.21
2022-12-06T17:39:37.986Z,5.17
2022-12-06T17:42:25.493Z,5.22
2022-12-06T17:44:57.803Z,4.91
2022-12-06T17:47:26.907Z,4.90
2022-12-06T17:49:56.560Z,4.83
2022-12-06T17:52:26.967Z,4.81
2022-12-06T17:54:56.621Z,4.92
2022-12-06T17:57:25.291Z,4.78
2022-12-06T17:59:54.159Z,4.83
2022-12-06T18:02:26.024Z,4.92
2022-12-06T18:04:56.264Z,5.06
2022-12-06T18:07:26.664Z,4.93
2022-12-06T18:09:55.728Z,4.91
2022-12-06T18:12:25.373Z,5.00
2022-12-06T18:14:54.520Z,5.09
2022-12-06T18:17:24.827Z,4.92
2022-12-06T18:19:54.259Z,4.57
2022-12-06T18:22:22.906Z,4.47
2022-12-06T18:24:53.152Z,4.41
2022-12-06T18:27:22.587Z,4.53
2022-12-06T18:29:51.509Z,4.50
2022-12-06T18:32:20.518Z,4.47
2022-12-06T18:34:49.881Z,4.48
2022-12-06T18:37:18.903Z,4.49
2022-12-06T18:39:47.793Z,4.52
2022-12-06T18:42:17.828Z,4.59
2022-12-06T18:44:47.675Z,4.47
2022-12-06T18:47:16.523Z,4.51
2022-12-06T18:49:45.360Z,4.62
2022-12-06T18:52:14.059Z,4.49
2022-12-06T18:54:42.775Z,4.58
2022-12-06T18:57:11.470Z,4.66
2022-12-06T18:59:41.583Z,4.60
2022-12-06T19:02:12.780Z,4.70
2022-12-06T19:04:41.931Z,4.84
2022-12-06T19:07:10.588Z,4.82
2022-12-06T19:09:39.415Z,4.92
2022-12-06T19:12:08.355Z,4.82
2022-12-06T19:14:37.169Z,4.93
2022-12-06T19:17:08.669Z,5.02
2022-12-06T19:19:37.406Z,4.88
2022-12-06T19:22:07.773Z,4.99
2022-12-06T19:24:36.935Z,5.12
2022-12-06T19:27:05.856Z,5.11
2022-12-06T19:29:35.772Z,4.94
2022-12-06T19:32:04.427Z,5.00
2022-12-06T19:34:34.273Z,4.98
2022-12-06T19:37:02.888Z,5.02
2022-12-06T19:39:31.507Z,4.95
2022-12-06T19:42:17.758Z,4.95
2022-12-06T19:44:46.410Z,4.90
2022-12-06T19:47:14.984Z,4.97
2022-12-06T19:49:45.055Z,4.82
2022-12-06T19:52:13.822Z,4.88
2022-12-06T19:54:43.669Z,4.57
2022-12-06T19:57:12.669Z,4.55
2022-12-06T19:59:41.269Z,4.66
2022-12-06T20:02:13.917Z,4.75
2022-12-06T20:04:46.489Z,4.72
2022-12-06T20:07:15.103Z,4.67
2022-12-06T20:09:44.162Z,4.53
2022-12-06T20:12:13.574Z,4.57
2022-12-06T20:14:47.010Z,4.82
2022-12-06T20:17:21.027Z,4.82
2022-12-06T20:19:51.334Z,4.80
2022-12-06T20:22:22.846Z,4.76
2022-12-06T20:24:51.511Z,4.77
2022-12-06T20:27:41.771Z,4.68
2022-12-06T20:30:15.661Z,4.76
2022-12-06T20:32:46.873Z,4.82
2022-12-06T20:35:17.651Z,4.83
2022-12-06T20:37:51.300Z,4.89
2022-12-06T20:40:20.296Z,4.81
2022-12-06T20:42:57.181Z,4.98
2022-12-06T20:45:25.950Z,5.10
2022-12-06T20:47:54.818Z,4.85
2022-12-06T20:50:25.023Z,4.77
2022-12-06T20:52:53.660Z,4.73
2022-12-06T20:55:22.234Z,4.69
2022-12-06T20:57:51.691Z,4.73
2022-12-06T21:00:22.356Z,4.78
2022-12-06T21:02:53.145Z,4.65
2022-12-06T21:05:21.969Z,4.80
2022-12-06T21:07:57.229Z,4.68
2022-12-06T21:10:25.879Z,4.64
2022-12-06T21:13:00.415Z,4.73
2022-12-06T21:15:36.173Z,4.88
2022-12-06T21:18:05.049Z,5.00
2022-12-06T21:20:38.914Z,4.80
2022-12-06T21:23:08.866Z,4.86
2022-12-06T21:25:38.797Z,4.95
2022-12-06T21:28:07.667Z,4.87
2022-12-06T21:30:38.707Z,4.82
2022-12-06T21:33:10.730Z,4.81
2022-12-06T21:35:39.695Z,4.77
2022-12-06T21:38:10.051Z,4.69
2022-12-06T21:40:41.631Z,4.82
2022-12-06T21:43:11.254Z,4.84
2022-12-06T21:45:42.154Z,4.82
2022-12-06T21:48:12.414Z,4.80
2022-12-06T21:50:41.335Z,4.91
2022-12-06T21:53:11.587Z,4.87
2022-12-06T21:55:41.153Z,4.78
2022-12-06T21:58:09.691Z,4.84
2022-12-06T22:00:38.288Z,4.74
2022-12-06T22:03:06.939Z,4.83
2022-12-06T22:05:40.249Z,4.96
2022-12-06T22:08:10.785Z,4.85
2022-12-06T22:10:42.682Z,4.82
2022-12-06T22:13:11.462Z,5.05
2022-12-06T22:15:40.035Z,5.02
2022-12-06T22:18:08.637Z,5.06
2022-12-06T22:20:37.388Z,5.14
2022-12-06T22:23:05.938Z,5.08
2022-12-06T22:25:40.025Z,5.07
2022-12-06T22:28:08.644Z,5.04
2022-12-06T22:30:37.661Z,5.15
2022-12-06T22:33:06.309Z,5.19
2022-12-06T22:35:34.932Z,5.16
2022-12-06T22:38:03.618Z,5.13
2022-12-06T22:40:32.326Z,5.14
2022-12-06T22:43:02.181Z,5.02
2022-12-06T22:45:30.827Z,4.99
2022-12-06T22:47:59.625Z,4.92
2022-12-06T22:50:28.176Z,5.04
2022-12-06T22:52:56.858Z,5.10
2022-12-06T22:55:25.406Z,5.24
2022-12-06T22:57:54.500Z,5.26
2022-12-06T23:00:24.678Z,5.27
2022-12-06T23:02:53.254Z,5.19
2022-12-06T23:05:30.133Z,5.13
2022-12-06T23:07:59.413Z,5.17
2022-12-06T23:10:28.114Z,5.16
2022-12-06T23:12:56.599Z,5.18
2022-12-06T23:15:26.511Z,5.20
2022-12-06T23:17:55.209Z,5.17
2022-12-06T23:20:23.891Z,5.22
2022-12-06T23:22:52.380Z,5.18
2022-12-06T23:25:20.854Z,5.19
2022-12-06T23:27:49.474Z,5.20
2022-12-06T23:30:18.244Z,5.20
2022-12-06T23:32:48.133Z,5.23
2022-12-06T23:35:16.844Z,5.24
2022-12-06T23:37:45.397Z,5.33
2022-12-06T23:40:14.357Z,5.29
2022-12-06T23:42:42.871Z,5.24
2022-12-06T23:45:12.520Z,5.31
2022-12-06T23:47:41.307Z,5.27
2022-12-06T23:50:12.348Z,4.91
2022-12-06T23:52:40.862Z,4.94
2022-12-06T23:55:10.647Z,5.02
2022-12-06T23:57:39.145Z,4.85
